Time;durP1;ratioP1;P1;durP2;ratioP2;P2;SDS_P1;SDS_P2;PMS_P1;PMS_P2;Temp;Humidity;BMP_temperature;BMP_pressure;BME280_temperature;BME280_humidity;BME280_pressure;Samples;Min_cycle;Max_cycle;Signal;HPM_P1;HPM_P2
2021/12/06 00:00:45;;;;;;;26.93;9.67;;;;;;;3.54;62.81;98407.53;4964758;28;20236;-64
2021/12/06 00:03:17;;;;;;;28.23;9.20;;;;;;;3.02;63.93;98416.31;4966881;28;20235;-64
2021/12/06 00:05:45;;;;;;;43.60;7.57;;;;;;;3.26;63.35;98417.41;4965857;28;20229;-64
2021/12/06 00:08:12;;;;;;;40.67;8.57;;;;;;;3.43;63.08;98421.00;4966251;28;20229;-64
2021/12/06 00:10:40;;;;;;;43.67;9.30;;;;;;;3.40;63.55;98416.03;4967107;28;20252;-64
2021/12/06 00:13:07;;;;;;;53.03;10.17;;;;;;;3.49;63.33;98419.50;4967603;28;20243;-63
2021/12/06 00:15:37;;;;;;;36.10;8.43;;;;;;;3.63;62.39;98421.56;4950034;28;20594;-64
2021/12/06 00:18:04;;;;;;;35.00;7.80;;;;;;;3.24;63.66;98416.75;4950484;28;20228;-64
2021/12/06 00:20:31;;;;;;;26.87;6.03;;;;;;;3.56;62.91;98421.38;4949164;28;20238;-64
2021/12/06 00:22:58;;;;;;;32.67;7.13;;;;;;;3.42;62.75;98411.41;4951058;28;20236;-64
2021/12/06 00:25:25;;;;;;;20.53;8.33;;;;;;;3.22;63.69;98413.47;4959989;28;20227;-64
2021/12/06 00:27:52;;;;;;;21.03;6.50;;;;;;;3.46;62.95;98415.41;4969439;28;20232;-64
2021/12/06 00:30:20;;;;;;;13.73;6.80;;;;;;;3.35;63.20;98426.22;4968305;28;20229;-64
2021/12/06 00:32:47;;;;;;;14.63;6.63;;;;;;;3.52;62.54;98430.59;4968378;28;20254;-64
2021/12/06 00:35:20;;;;;;;15.07;5.87;;;;;;;3.43;63.34;98431.53;4969663;28;20227;-64
2021/12/06 00:37:56;;;;;;;13.20;7.00;;;;;;;3.59;62.88;98436.88;4968649;28;20229;-64
2021/12/06 00:40:43;;;;;;;7.73;5.97;;;;;;;3.51;62.89;98428.94;4952194;28;20234;-64
2021/12/06 00:43:11;;;;;;;9.47;6.80;;;;;;;3.41;63.16;98433.50;4968550;28;20233;-64
2021/12/06 00:45:40;;;;;;;8.20;6.23;;;;;;;3.57;62.75;98444.13;4968656;28;20227;-64
2021/12/06 00:48:07;;;;;;;7.70;6.90;;;;;;;3.78;62.01;98441.06;4968627;28;20237;-64
2021/12/06 00:50:37;;;;;;;7.40;6.43;;;;;;;3.84;61.83;98441.41;4968691;28;20233;-64
2021/12/06 00:53:05;;;;;;;10.73;7.47;;;;;;;4.08;61.10;98449.38;4968640;28;20236;-64
2021/12/06 00:55:33;;;;;;;8.67;7.03;;;;;;;3.94;61.61;98437.63;4968628;28;20634;-64
2021/12/06 00:58:00;;;;;;;8.67;6.90;;;;;;;3.89;62.05;98441.75;4968556;28;20229;-64
2021/12/06 01:00:35;;;;;;;12.57;7.20;;;;;;;3.94;61.61;98445.53;4969105;28;20226;-64
2021/12/06 01:03:06;;;;;;;11.17;8.07;;;;;;;3.98;61.76;98438.16;4968275;28;20236;-64
2021/12/06 01:05:33;;;;;;;9.23;7.57;;;;;;;3.94;61.54;98445.53;4969046;28;20244;-64
2021/12/06 01:08:00;;;;;;;9.10;7.47;;;;;;;3.92;62.06;98452.78;4968894;28;20226;-64
2021/12/06 01:10:28;;;;;;;9.47;8.07;;;;;;;3.89;61.71;98444.38;4967677;28;20238;-64
2021/12/06 01:12:56;;;;;;;10.10;7.57;;;;;;;2.89;64.18;98449.31;4969533;28;20225;-64
2021/12/06 01:15:24;;;;;;;11.40;8.13;;;;;;;2.52;65.70;98471.41;4968635;28;20231;-64
2021/12/06 01:17:52;;;;;;;10.77;7.67;;;;;;;2.27;66.47;98474.63;4966658;28;20668;-64
2021/12/06 01:20:23;;;;;;;10.70;7.47;;;;;;;2.20;67.12;98493.81;4968988;28;20227;-64
2021/12/06 01:23:05;;;;;;;11.07;8.20;;;;;;;2.23;66.53;98485.63;4967670;28;20240;-64
2021/12/06 01:33:41;;;;;;;9.83;7.50;;;;;;;2.39;66.13;98503.38;4961290;28;20734;-63
2021/12/06 01:39:14;;;;;;;9.80;7.67;;;;;;;2.60;65.38;98508.34;4980810;28;20800;-64
2021/12/06 01:41:53;;;;;;;9.33;7.50;;;;;;;2.81;64.54;98510.66;4966785;28;20633;-64
2021/12/06 01:44:22;;;;;;;10.20;7.83;;;;;;;3.22;63.63;98526.78;4967517;28;20236;-64
2021/12/06 01:46:51;;;;;;;10.50;7.93;;;;;;;3.13;63.31;98519.78;4966462;28;20239;-64
2021/12/06 01:49:21;;;;;;;10.87;8.07;;;;;;;3.16;63.30;98522.13;4968283;28;20579;-64
2021/12/06 01:51:51;;;;;;;10.93;7.90;;;;;;;3.40;63.12;98524.94;4964912;28;20238;-64
2021/12/06 01:54:19;;;;;;;9.40;7.20;;;;;;;3.03;63.84;98526.00;4968090;28;20351;-64
2021/12/06 01:56:48;;;;;;;9.70;7.20;;;;;;;3.22;63.40;98529.41;4966801;28;20231;-64
2021/12/06 01:59:16;;;;;;;14.13;7.30;;;;;;;3.46;62.54;98527.94;4967909;28;20245;-64
2021/12/06 02:01:43;;;;;;;10.53;7.07;;;;;;;3.57;62.25;98522.38;4968224;28;20233;-64
2021/12/06 02:04:11;;;;;;;8.17;7.37;;;;;;;3.36;62.24;98513.06;4956130;28;20228;-64
2021/12/06 02:06:39;;;;;;;9.00;6.40;;;;;;;3.26;62.66;98524.66;4948172;28;20240;-64
2021/12/06 02:09:08;;;;;;;7.50;6.00;;;;;;;3.33;62.57;98525.72;4949919;28;20240;-64
2021/12/06 02:11:37;;;;;;;7.60;5.87;;;;;;;3.08;63.18;98525.50;4967473;28;20229;-64
2021/12/06 02:16:39;;;;;;;6.00;5.00;;;;;;;3.23;62.33;98525.78;4949107;28;20234;-64
2021/12/06 02:19:07;;;;;;;5.83;4.73;;;;;;;3.34;61.94;98530.03;4965624;28;20237;-64
2021/12/06 02:21:39;;;;;;;7.00;5.17;;;;;;;3.09;62.71;98529.81;4965533;23;20244;-67
2021/12/06 02:24:09;;;;;;;7.23;5.30;;;;;;;1.04;68.98;98549.28;4915636;28;20730;-67
2021/12/06 02:26:38;;;;;;;6.30;5.20;;;;;;;0.90;70.08;98562.84;4907596;28;20240;-67
2021/12/06 02:29:07;;;;;;;5.93;5.27;;;;;;;2.64;64.90;98547.38;4909565;29;20240;-67
2021/12/06 02:31:35;;;;;;;5.30;4.80;;;;;;;2.94;63.41;98531.34;4909066;28;20240;-67
2021/12/06 02:34:02;;;;;;;6.27;5.27;;;;;;;3.50;61.74;98529.28;4909704;29;20726;-68
2021/12/06 02:36:29;;;;;;;5.10;4.40;;;;;;;3.59;61.50;98537.09;4908971;29;20632;-67
2021/12/06 02:38:57;;;;;;;9.17;4.73;;;;;;;3.61;61.13;98535.09;4909514;29;20227;-67
2021/12/06 02:41:25;;;;;;;5.63;4.37;;;;;;;1.66;65.41;98554.16;4906533;29;20627;-66
2021/12/06 02:43:53;;;;;;;6.40;4.43;;;;;;;2.17;65.19;98568.59;4909816;29;20531;-67
2021/12/06 02:46:21;;;;;;;6.13;4.90;;;;;;;2.87;62.64;98565.38;4918348;28;20235;-68
2021/12/06 02:48:49;;;;;;;5.87;5.27;;;;;;;2.59;63.19;98556.72;4908823;29;20236;-67
2021/12/06 02:51:16;;;;;;;4.87;3.90;;;;;;;2.07;66.13;98575.72;4907124;29;20240;-68
2021/12/06 02:53:44;;;;;;;4.57;3.90;;;;;;;2.79;63.38;98563.47;4909013;28;20243;-67
2021/12/06 02:56:52;;;;;;;4.20;3.80;;;;;;;1.74;65.97;98557.72;4909569;29;20239;-67
2021/12/06 02:59:10;;;;;;;5.37;4.60;;;;;;;-0.51;72.74;98613.50;4904595;28;20769;-68
2021/12/06 03:01:44;;;;;;;6.07;5.13;;;;;;;0.68;70.05;98593.66;4899247;29;20757;-67
2021/12/06 03:04:12;;;;;;;5.33;4.07;;;;;;;1.71;67.00;98581.66;4909824;29;20226;-67
2021/12/06 03:06:42;;;;;;;4.53;3.97;;;;;;;1.11;67.05;98571.41;4908692;29;20248;-67
2021/12/06 03:09:19;;;;;;;4.60;4.20;;;;;;;0.53;71.12;98608.97;4917176;28;20273;-67
2021/12/06 03:11:56;;;;;;;5.43;4.30;;;;;;;0.74;69.95;98602.75;4909158;29;20606;-67
2021/12/06 03:14:29;;;;;;;5.03;4.30;;;;;;;1.50;66.99;98586.28;4909255;29;20614;-67
2021/12/06 03:16:58;;;;;;;4.70;4.20;;;;;;;2.31;64.65;98572.56;4908440;29;21858;-67
2021/12/06 03:19:26;;;;;;;4.37;3.97;;;;;;;2.82;62.90;98573.72;4908333;29;20718;-67
2021/12/06 03:21:53;;;;;;;5.23;3.87;;;;;;;0.69;69.43;98610.22;4909026;29;20237;-67
2021/12/06 03:24:21;;;;;;;4.37;3.90;;;;;;;1.05;69.19;98607.91;4909055;29;20608;-67
2021/12/06 03:26:49;;;;;;;4.07;3.70;;;;;;;0.37;70.92;98613.88;4909260;29;20700;-67
2021/12/06 03:29:17;;;;;;;4.07;3.67;;;;;;;0.46;71.41;98618.34;4909023;29;20241;-67
2021/12/06 03:31:46;;;;;;;4.53;3.70;;;;;;;0.17;72.31;98616.47;4907051;29;20243;-67
2021/12/06 03:34:17;;;;;;;4.23;3.53;;;;;;;0.66;71.13;98616.59;4909840;29;20243;-67
2021/12/06 03:36:44;;;;;;;4.10;3.50;;;;;;;0.08;72.49;98623.34;4909849;28;20220;-67
2021/12/06 03:39:23;;;;;;;5.00;3.43;;;;;;;0.14;72.10;98629.03;4908952;28;20238;-68
2021/12/06 03:41:52;;;;;;;3.77;3.47;;;;;;;0.74;70.92;98629.88;4908281;29;20565;-67
2021/12/06 03:44:20;;;;;;;4.23;3.53;;;;;;;0.12;72.22;98617.81;4901396;29;20240;-67
2021/12/06 03:46:50;;;;;;;4.03;3.43;;;;;;;-0.16;72.69;98615.75;4980082;28;20242;-67
2021/12/06 03:49:18;;;;;;;3.53;3.23;;;;;;;-0.20;73.30;98624.88;4943542;28;20239;-67
2021/12/06 03:51:46;;;;;;;3.67;3.37;;;;;;;2.02;66.34;98596.38;4912178;29;20242;-67
2021/12/06 03:54:18;;;;;;;3.77;3.43;;;;;;;2.69;63.07;98586.44;4913005;29;20720;-68
2021/12/06 03:56:45;;;;;;;4.10;3.70;;;;;;;3.06;60.84;98583.63;4911333;29;20246;-67
2021/12/06 03:59:12;;;;;;;3.97;3.67;;;;;;;3.00;60.77;98586.88;4918122;28;20716;-67
2021/12/06 04:01:40;;;;;;;4.93;4.37;;;;;;;2.91;61.32;98590.41;4911467;28;20247;-67
2021/12/06 04:04:09;;;;;;;7.27;4.83;;;;;;;2.91;61.27;98600.94;4912186;29;20263;-67
2021/12/06 04:06:38;;;;;;;18.83;14.23;;;;;;;2.78;62.15;98608.38;4911848;29;20230;-67
2021/12/06 04:09:07;;;;;;;19.93;14.37;;;;;;;2.74;62.30;98618.41;4912751;29;20878;-67
2021/12/06 04:11:36;;;;;;;27.07;19.30;;;;;;;2.58;62.99;98616.44;4910012;29;20235;-67
2021/12/06 04:14:04;;;;;;;15.40;11.17;;;;;;;2.88;62.52;98617.03;4910630;29;20230;-67
2021/12/06 04:16:32;;;;;;;13.03;9.87;;;;;;;2.68;63.01;98619.84;4911378;29;20238;-67
2021/12/06 04:19:02;;;;;;;6.67;5.20;;;;;;;2.58;63.20;98626.13;4911451;29;20468;-67
2021/12/06 04:21:30;;;;;;;4.90;4.40;;;;;;;2.11;64.79;98629.72;4911209;28;20231;-67
2021/12/06 04:23:57;;;;;;;15.13;11.33;;;;;;;2.78;63.15;98634.72;4911894;29;20253;-67
2021/12/06 04:26:24;;;;;;;14.40;10.90;;;;;;;2.68;63.33;98640.91;4910816;29;20237;-67
2021/12/06 04:28:59;;;;;;;9.23;6.83;;;;;;;1.00;66.88;98651.16;4911400;29;20237;-67
2021/12/06 04:31:30;;;;;;;9.07;5.93;;;;;;;1.78;66.21;98671.31;4911140;29;20613;-66
2021/12/06 04:33:58;;;;;;;6.37;5.47;;;;;;;1.26;67.51;98678.69;4912061;29;20236;-67
2021/12/06 04:36:37;;;;;;;6.97;5.43;;;;;;;0.08;71.40;98707.25;4910768;28;20239;-68
2021/12/06 04:39:08;;;;;;;7.90;6.10;;;;;;;-1.78;75.30;98720.41;4910331;29;20696;-68
2021/12/06 04:41:36;;;;;;;6.90;5.83;;;;;;;0.46;70.56;98702.31;4911661;28;20742;-68
2021/12/06 04:44:04;;;;;;;7.53;5.73;;;;;;;0.30;69.40;98700.16;4911347;29;20232;-68
2021/12/06 04:46:31;;;;;;;7.00;5.67;;;;;;;0.81;68.47;98687.91;4922145;28;20232;-67
2021/12/06 04:48:59;;;;;;;5.80;4.43;;;;;;;0.77;67.93;98687.31;4910971;29;20237;-68
2021/12/06 04:51:26;;;;;;;5.17;4.53;;;;;;;0.41;69.57;98702.69;4911340;29;20234;-68
2021/12/06 04:53:53;;;;;;;5.97;4.93;;;;;;;1.76;66.95;98694.31;4911635;29;20237;-69
2021/12/06 04:56:37;;;;;;;5.97;4.97;;;;;;;1.71;65.68;98693.91;4910034;29;20234;-68
2021/12/06 04:59:13;;;;;;;5.90;4.73;;;;;;;0.94;70.00;98725.25;4911065;28;20308;-68
2021/12/06 05:01:41;;;;;;;5.97;4.83;;;;;;;0.66;69.36;98708.44;4913182;28;20253;-68
2021/12/06 05:04:14;;;;;;;7.60;4.90;;;;;;;0.00;72.98;98725.41;4930490;28;20618;-68
2021/12/06 05:06:45;;;;;;;6.00;4.97;;;;;;;1.08;69.21;98716.16;4930526;28;20630;-68
2021/12/06 05:09:23;;;;;;;8.00;5.20;;;;;;;1.04;68.23;98720.00;4939084;28;20705;-68
2021/12/06 05:11:50;;;;;;;6.00;5.20;;;;;;;0.24;71.41;98729.56;5010195;28;20677;-68
2021/12/06 05:14:18;;;;;;;7.10;5.67;;;;;;;0.42;72.06;98745.50;4953355;28;20234;-68
2021/12/06 05:16:45;;;;;;;6.77;6.07;;;;;;;0.33;72.41;98743.66;4911325;29;20243;-68
2021/12/06 05:19:12;;;;;;;7.00;6.27;;;;;;;0.76;70.82;98734.72;4911334;29;20739;-68
2021/12/06 05:21:40;;;;;;;11.00;9.90;;;;;;;0.92;69.53;98726.34;4910692;29;20243;-68
2021/12/06 05:24:07;;;;;;;9.70;8.27;;;;;;;2.05;66.80;98714.44;4927987;28;20227;-68
2021/12/06 05:26:36;;;;;;;10.53;9.33;;;;;;;-0.43;72.44;98742.09;4916752;29;20267;-68
2021/12/06 05:29:08;;;;;;;9.13;8.13;;;;;;;0.71;72.19;98734.31;4928623;28;20422;-69
2021/12/06 05:31:39;;;;;;;11.10;8.97;;;;;;;1.52;67.88;98713.97;4947096;28;20727;-69
2021/12/06 05:34:15;;;;;;;9.73;8.27;;;;;;;1.87;66.22;98707.31;5010250;28;20224;-68
2021/12/06 05:36:43;;;;;;;11.93;8.00;;;;;;;2.27;65.91;98716.72;4987343;28;20473;-69
2021/12/06 05:39:10;;;;;;;10.40;7.03;;;;;;;-0.09;71.35;98741.91;4928969;28;20733;-68
2021/12/06 05:41:38;;;;;;;7.47;6.23;;;;;;;0.23;74.43;98751.47;4991664;28;20239;-69
2021/12/06 05:44:05;;;;;;;6.83;5.80;;;;;;;1.08;70.39;98731.91;4932809;28;20230;-68
2021/12/06 05:46:32;;;;;;;8.60;6.30;;;;;;;1.96;66.93;98725.84;4946875;28;20228;-69
2021/12/06 05:49:00;;;;;;;6.13;5.50;;;;;;;2.20;66.00;98727.97;5009956;28;20702;-69
2021/12/06 05:51:27;;;;;;;7.20;6.50;;;;;;;2.17;65.45;98723.00;5009257;28;20232;-69
2021/12/06 05:53:53;;;;;;;6.93;6.23;;;;;;;0.88;69.22;98764.34;5010210;28;20235;-69
2021/12/06 05:56:21;;;;;;;6.40;5.70;;;;;;;1.34;67.43;98755.84;5010043;28;20238;-69
2021/12/06 05:58:48;;;;;;;7.20;6.00;;;;;;;0.50;70.19;98781.59;5000825;28;20232;-68
2021/12/06 06:01:15;;;;;;;6.47;5.87;;;;;;;1.47;68.31;98778.44;4929893;28;20230;-69
2021/12/06 06:03:46;;;;;;;8.10;6.57;;;;;;;0.61;70.82;98790.22;4929530;28;20568;-69
2021/12/06 06:06:13;;;;;;;9.50;7.73;;;;;;;0.45;71.83;98795.94;4929504;28;20241;-69
2021/12/06 06:08:40;;;;;;;6.60;5.87;;;;;;;0.86;70.88;98801.22;4927883;28;20708;-68
2021/12/06 06:11:12;;;;;;;5.90;5.37;;;;;;;0.78;71.54;98814.19;5005278;28;20232;-68
2021/12/06 06:13:39;;;;;;;5.90;5.30;;;;;;;1.05;71.80;98810.97;5009573;28;20232;-68
2021/12/06 06:16:05;;;;;;;5.90;5.23;;;;;;;-0.56;75.90;98838.34;4993100;28;20231;-69
2021/12/06 06:18:32;;;;;;;7.03;5.83;;;;;;;0.60;70.93;98811.34;4928389;28;20243;-68
2021/12/06 06:20:59;;;;;;;6.00;5.07;;;;;;;1.20;70.48;98817.50;4929240;28;20246;-69
2021/12/06 06:23:28;;;;;;;5.30;4.80;;;;;;;0.83;71.01;98836.44;4929625;28;20730;-69
2021/12/06 06:25:57;;;;;;;5.63;5.03;;;;;;;2.11;66.94;98816.50;4929230;28;20237;-69
2021/12/06 06:28:24;;;;;;;7.13;5.90;;;;;;;1.91;66.87;98816.50;4929313;28;20730;-68
2021/12/06 06:30:51;;;;;;;6.40;5.57;;;;;;;1.71;68.38;98830.63;4929289;28;20235;-69
2021/12/06 06:33:18;;;;;;;7.67;6.30;;;;;;;1.29;69.44;98829.00;4928638;28;20228;-69
2021/12/06 06:35:45;;;;;;;6.63;5.50;;;;;;;1.89;67.24;98822.88;4940147;28;20235;-69
2021/12/06 06:38:13;;;;;;;8.90;7.10;;;;;;;2.18;66.64;98828.09;4930060;28;20587;-69
2021/12/06 06:40:40;;;;;;;24.07;16.80;;;;;;;1.88;66.56;98843.06;4929206;28;20242;-68
2021/12/06 06:43:07;;;;;;;29.47;17.70;;;;;;;1.26;68.80;98845.03;4970236;28;20232;-69
2021/12/06 06:45:34;;;;;;;45.00;28.80;;;;;;;2.37;66.48;98840.41;4993370;28;20228;-69
2021/12/06 06:48:01;;;;;;;42.70;27.27;;;;;;;2.03;66.37;98845.28;4929331;28;20241;-69
2021/12/06 06:50:28;;;;;;;33.27;22.53;;;;;;;2.23;66.77;98849.56;4930521;28;20235;-68
2021/12/06 06:52:56;;;;;;;28.13;17.83;;;;;;;2.18;66.06;98841.28;5009425;28;20225;-68
2021/12/06 06:55:23;;;;;;;22.07;14.83;;;;;;;2.36;66.04;98844.03;5010012;28;20345;-69
2021/12/06 06:57:51;;;;;;;20.87;14.67;;;;;;;2.91;63.73;98843.28;5008184;28;20620;-68
2021/12/06 07:00:25;;;;;;;23.80;16.90;;;;;;;2.25;65.35;98846.81;5009320;28;20225;-69
2021/12/06 07:02:53;;;;;;;25.27;16.40;;;;;;;1.38;69.05;98872.00;5008025;28;20242;-69
2021/12/06 07:05:21;;;;;;;22.77;16.17;;;;;;;1.55;68.93;98867.97;5009394;28;20231;-69
2021/12/06 07:07:48;;;;;;;48.10;16.80;;;;;;;1.85;67.51;98871.44;4997809;28;20625;-69
2021/12/06 07:10:15;;;;;;;52.43;17.77;;;;;;;1.44;69.36;98884.66;4972944;28;20232;-68
2021/12/06 07:12:47;;;;;;;65.87;20.40;;;;;;;1.56;68.82;98877.50;5008510;28;20710;-69
2021/12/06 07:15:21;;;;;;;61.87;20.37;;;;;;;1.70;69.07;98889.41;5008876;28;20618;-69
2021/12/06 07:17:51;;;;;;;41.60;19.30;;;;;;;1.12;70.72;98888.25;5008713;28;20229;-68
2021/12/06 07:20:19;;;;;;;87.43;20.40;;;;;;;1.52;69.49;98892.72;5012159;28;20538;-69
2021/12/06 07:22:48;;;;;;;80.90;16.53;;;;;;;1.88;68.77;98893.03;5012424;28;20250;-68
2021/12/06 07:25:16;;;;;;;63.37;14.93;;;;;;;1.54;68.76;98888.16;5012742;28;20235;-69
2021/12/06 07:27:43;;;;;;;34.97;14.47;;;;;;;1.81;68.64;98897.19;5012183;28;20234;-69
2021/12/06 07:30:12;;;;;;;68.37;16.13;;;;;;;2.11;67.80;98895.44;5012989;28;20488;-69
2021/12/06 07:32:40;;;;;;;44.53;18.00;;;;;;;1.78;68.92;98901.91;5012107;28;20240;-69
2021/12/06 07:35:09;;;;;;;54.80;17.37;;;;;;;2.27;66.96;98900.94;4968986;28;20232;-68
2021/12/06 07:37:36;;;;;;;36.67;14.73;;;;;;;1.84;68.27;98907.44;4925839;28;20251;-69
2021/12/06 07:40:06;;;;;;;48.30;15.23;;;;;;;2.05;67.88;98909.94;4912477;29;20238;-68
2021/12/06 07:42:34;;;;;;;45.70;15.70;;;;;;;1.94;68.17;98910.91;4919880;28;20236;-68
2021/12/06 07:45:02;;;;;;;37.90;14.00;;;;;;;2.09;67.44;98919.25;4931589;28;20234;-68
2021/12/06 07:47:29;;;;;;;43.57;15.63;;;;;;;1.64;68.25;98917.09;5010794;28;20231;-68
2021/12/06 07:49:56;;;;;;;48.50;15.33;;;;;;;1.94;68.16;98924.06;5012084;28;20237;-69
2021/12/06 07:52:26;;;;;;;44.73;16.47;;;;;;;2.16;67.17;98926.56;5012380;28;20226;-69
2021/12/06 07:54:58;;;;;;;37.67;14.10;;;;;;;2.09;67.38;98924.50;5011438;28;20270;-68
2021/12/06 07:57:26;;;;;;;24.33;13.20;;;;;;;1.94;68.03;98931.13;5011389;28;20747;-68
2021/12/06 07:59:54;;;;;;;34.47;13.87;;;;;;;2.14;67.06;98932.00;5012484;28;20705;-68
2021/12/06 08:02:21;;;;;;;21.37;12.73;;;;;;;2.27;67.05;98929.88;5011935;28;20239;-68
2021/12/06 08:04:58;;;;;;;23.70;14.37;;;;;;;2.29;66.99;98921.84;5011837;28;20594;-69
2021/12/06 08:07:26;;;;;;;28.13;16.10;;;;;;;2.55;66.41;98919.50;5011672;28;20693;-71
2021/12/06 08:09:53;;;;;;;26.67;15.47;;;;;;;1.57;69.39;98929.13;4972057;28;20239;-67
2021/12/06 08:12:20;;;;;;;22.37;15.30;;;;;;;1.90;68.17;98932.34;4921186;29;20250;-67
2021/12/06 08:14:47;;;;;;;19.00;11.67;;;;;;;2.02;67.82;98927.81;4927259;28;20233;-67
2021/12/06 08:17:15;;;;;;;22.23;13.30;;;;;;;2.04;67.68;98931.13;4936226;28;20253;-67
2021/12/06 08:19:42;;;;;;;19.30;13.20;;;;;;;2.20;67.76;98933.22;5010769;28;20232;-70
2021/12/06 08:22:09;;;;;;;21.23;12.83;;;;;;;2.07;67.53;98930.84;5010946;28;20237;-67
2021/12/06 08:24:36;;;;;;;21.07;12.27;;;;;;;2.16;67.91;98942.34;5012098;28;20249;-67
2021/12/06 08:27:03;;;;;;;16.07;10.57;;;;;;;1.32;68.85;98928.56;4962867;28;20235;-67
2021/12/06 08:29:30;;;;;;;19.13;12.20;;;;;;;1.71;68.81;98952.38;4930723;28;20239;-67
2021/12/06 08:31:57;;;;;;;18.50;12.27;;;;;;;1.91;68.84;98945.38;4929825;28;20239;-68
2021/12/06 08:34:24;;;;;;;17.93;11.97;;;;;;;1.82;68.77;98951.47;4942680;28;20228;-68
2021/12/06 08:36:51;;;;;;;19.83;11.80;;;;;;;2.22;68.08;98947.91;4983507;28;20230;-68
2021/12/06 08:39:18;;;;;;;16.87;11.60;;;;;;;2.29;67.38;98949.03;4929379;29;20228;-68
2021/12/06 08:41:45;;;;;;;20.47;12.03;;;;;;;2.37;67.08;98953.59;4930969;28;20253;-67
2021/12/06 08:44:13;;;;;;;22.77;12.57;;;;;;;2.24;67.05;98947.75;4980864;28;20614;-68
2021/12/06 08:46:40;;;;;;;24.60;13.80;;;;;;;1.62;69.07;98958.47;4958264;28;20235;-68
2021/12/06 08:49:09;;;;;;;20.40;12.90;;;;;;;2.45;67.63;98959.00;4930339;28;20241;-67
2021/12/06 08:51:41;;;;;;;18.97;11.83;;;;;;;2.15;68.37;98954.69;4923264;28;20255;-68
2021/12/06 08:54:09;;;;;;;19.33;11.70;;;;;;;2.53;67.18;98949.56;4931365;28;20724;-68
2021/12/06 08:56:37;;;;;;;23.93;11.00;;;;;;;0.03;76.21;98991.78;4930066;28;20714;-68
2021/12/06 08:59:08;;;;;;;24.17;11.63;;;;;;;0.82;74.51;98980.97;4930192;28;20239;-68
2021/12/06 09:01:36;;;;;;;22.13;12.30;;;;;;;2.04;69.80;98954.81;4928513;28;20239;-67
2021/12/06 09:04:26;;;;;;;21.87;10.97;;;;;;;0.65;74.75;98974.50;4930976;28;20589;-67
2021/12/06 09:06:55;;;;;;;29.90;12.57;;;;;;;-0.38;78.26;98985.41;4928122;29;20231;-69
2021/12/06 09:09:22;;;;;;;27.57;12.43;;;;;;;0.11;77.27;98978.06;4927605;28;20746;-68
2021/12/06 09:11:49;;;;;;;37.97;16.50;;;;;;;1.52;71.37;98947.09;4911386;29;20682;-68
2021/12/06 09:14:17;;;;;;;42.93;21.97;;;;;;;1.82;70.77;98950.59;4911421;29;20231;-68
2021/12/06 09:16:45;;;;;;;38.83;24.70;;;;;;;1.64;70.65;98942.56;4911156;29;20228;-68
2021/12/06 09:19:14;;;;;;;38.07;16.70;;;;;;;1.87;71.89;98957.16;4928415;29;20243;-68
2021/12/06 09:21:43;;;;;;;29.87;16.10;;;;;;;1.91;71.07;98953.25;4929916;28;20239;-68
2021/12/06 09:24:15;;;;;;;30.80;14.70;;;;;;;1.38;72.65;98962.22;4930167;28;20241;-68
2021/12/06 09:26:43;;;;;;;25.73;10.80;;;;;;;0.82;73.77;98967.84;4929947;28;20239;-68
2021/12/06 09:29:10;;;;;;;20.30;10.27;;;;;;;-0.98;81.53;98996.09;4930149;28;20637;-68
2021/12/06 09:31:37;;;;;;;12.77;8.63;;;;;;;0.54;79.44;98979.78;4929573;28;20245;-68
2021/12/06 09:34:04;;;;;;;11.03;8.20;;;;;;;0.14;77.52;98975.19;4928922;29;20719;-68
2021/12/06 09:36:33;;;;;;;13.73;10.20;;;;;;;-1.24;81.97;99006.69;4945647;28;20225;-67
2021/12/06 09:39:01;;;;;;;53.50;10.40;;;;;;;-1.05;82.36;99000.94;5010217;28;20238;-68
2021/12/06 09:41:30;;;;;;;21.90;10.93;;;;;;;1.03;77.51;98978.34;5010114;28;20229;-68
2021/12/06 09:44:00;;;;;;;15.67;10.00;;;;;;;0.67;75.50;98974.38;5009550;28;20598;-68
2021/12/06 09:46:33;;;;;;;14.50;10.20;;;;;;;0.89;75.03;98973.41;4965759;28;20233;-68
2021/12/06 09:49:03;;;;;;;81.30;12.63;;;;;;;-0.80;80.08;99009.56;4928635;28;21692;-68
2021/12/06 09:51:30;;;;;;;32.50;11.53;;;;;;;0.23;77.79;98998.06;4929520;28;20313;-70
2021/12/06 09:53:58;;;;;;;23.40;10.20;;;;;;;-0.44;80.66;99010.31;4930152;28;20230;-68
2021/12/06 09:56:30;;;;;;;66.30;12.50;;;;;;;1.58;73.89;98967.56;4928710;29;20231;-68
2021/12/06 09:59:00;;;;;;;21.10;11.83;;;;;;;1.71;73.06;98968.16;4929117;28;20845;-68
2021/12/06 10:01:31;;;;;;;62.17;12.57;;;;;;;0.20;76.36;98987.81;4928159;28;20231;-67
2021/12/06 10:04:00;;;;;;;38.80;11.60;;;;;;;0.94;77.61;98992.25;4930825;28;20769;-68
2021/12/06 10:06:29;;;;;;;80.10;14.17;;;;;;;2.04;72.21;98965.31;4929357;28;20612;-67
2021/12/06 10:08:59;;;;;;;34.13;12.17;;;;;;;2.30;71.46;98955.94;4930062;28;21494;-68
2021/12/06 10:11:30;;;;;;;25.90;10.93;;;;;;;0.87;77.60;98980.59;4965395;28;20623;-68
2021/12/06 10:13:58;;;;;;;47.00;10.97;;;;;;;1.20;73.99;98966.41;4945627;28;20238;-68
2021/12/06 10:16:25;;;;;;;65.23;18.27;;;;;;;0.93;76.87;98977.47;4913115;29;20240;-68
2021/12/06 10:18:53;;;;;;;65.47;13.73;;;;;;;-0.63;80.38;98995.19;4928650;28;20235;-68
2021/12/06 10:21:23;;;;;;;153.20;13.30;;;;;;;-1.45;83.76;99011.75;4954796;28;20232;-68
2021/12/06 10:23:51;;;;;;;101.47;11.43;;;;;;;-1.04;82.53;99004.41;5007130;28;20578;-68
2021/12/06 10:26:22;;;;;;;78.93;12.10;;;;;;;-0.51;83.61;98996.00;5010029;28;20227;-68
2021/12/06 10:28:57;;;;;;;53.70;11.40;;;;;;;0.62;78.47;98961.63;5008896;28;20236;-68
2021/12/06 10:31:26;;;;;;;55.27;11.83;;;;;;;1.61;74.93;98938.38;4933172;28;20238;-68
2021/12/06 10:33:55;;;;;;;103.57;12.93;;;;;;;0.01;78.92;98968.31;4928941;28;21598;-69
2021/12/06 10:36:25;;;;;;;106.40;12.80;;;;;;;1.48;75.35;98946.53;4940345;28;20228;-68
2021/12/06 10:39:00;;;;;;;89.57;12.90;;;;;;;1.59;73.19;98944.75;5008726;28;20854;-68
2021/12/06 10:41:28;;;;;;;61.73;11.40;;;;;;;0.08;80.00;98982.59;5008762;28;20226;-68
2021/12/06 10:44:04;;;;;;;90.63;11.40;;;;;;;-0.56;81.03;98985.06;5009763;28;20231;-68
2021/12/06 10:46:33;;;;;;;51.83;11.70;;;;;;;1.15;75.15;98953.66;4973595;28;20235;-68
2021/12/06 10:49:04;;;;;;;49.07;10.23;;;;;;;1.69;73.41;98943.00;5007259;28;20232;-68
2021/12/06 10:51:34;;;;;;;54.03;11.67;;;;;;;1.51;72.79;98948.03;5008497;28;20243;-68
2021/12/06 10:54:08;;;;;;;147.03;13.13;;;;;;;0.11;78.50;98976.25;5008809;28;20224;-68
2021/12/06 10:56:43;;;;;;;73.53;13.30;;;;;;;1.00;75.74;98954.97;5008686;28;20237;-68
2021/12/06 10:59:25;;;;;;;62.93;10.87;;;;;;;1.31;73.31;98949.72;5008703;28;20582;-68
2021/12/06 11:03:51;;;;;;;34.97;10.60;;;;;;;-0.52;80.38;98970.78;5008551;28;20309;-69
2021/12/06 11:06:26;;;;;;;37.57;12.53;;;;;;;-0.00;79.09;98955.31;4983035;28;20613;-70
2021/12/06 11:08:56;;;;;;;21.40;12.03;;;;;;;0.04;78.07;98954.94;5065185;28;20593;-67
2021/12/06 11:11:31;;;;;;;47.50;14.17;;;;;;;0.62;76.09;98928.38;5040140;28;20580;-67
2021/12/06 11:14:06;;;;;;;41.07;11.67;;;;;;;0.24;76.95;98934.16;4983340;28;21753;-69
2021/12/06 11:16:36;;;;;;;22.60;10.37;;;;;;;-0.59;81.51;98959.09;4981779;28;20239;-67
2021/12/06 11:19:07;;;;;;;18.87;10.20;;;;;;;-0.59;82.60;98949.47;4982858;28;20231;-68
2021/12/06 11:21:44;;;;;;;24.07;11.20;;;;;;;-0.83;80.84;98946.94;5019702;28;20242;-68
2021/12/06 11:24:14;;;;;;;19.83;11.03;;;;;;;0.23;78.78;98935.09;5065885;28;20224;-68
2021/12/06 11:26:52;;;;;;;13.87;9.93;;;;;;;0.66;78.11;98925.47;5065346;28;20230;-68
2021/12/06 11:29:23;;;;;;;14.17;10.17;;;;;;;0.70;77.84;98921.63;5064740;28;20240;-68
2021/12/06 11:31:57;;;;;;;15.40;11.27;;;;;;;-0.03;80.57;98935.44;4982866;28;21343;-67
2021/12/06 11:34:28;;;;;;;14.37;10.20;;;;;;;0.59;78.93;98930.41;4983521;28;20227;-68
2021/12/06 11:36:55;;;;;;;15.77;11.13;;;;;;;0.96;77.17;98922.03;4982765;28;20529;-68
2021/12/06 11:39:27;;;;;;;16.87;11.13;;;;;;;0.72;78.15;98931.03;4983998;28;20596;-68
2021/12/06 11:41:58;;;;;;;12.27;10.13;;;;;;;1.27;77.21;98919.44;4982438;28;20249;-68
2021/12/06 11:44:30;;;;;;;13.30;10.57;;;;;;;0.46;80.31;98941.09;4983390;28;20244;-68
2021/12/06 11:47:04;;;;;;;14.53;10.30;;;;;;;1.06;76.90;98914.22;4981748;28;21597;-68
2021/12/06 11:49:56;;;;;;;14.83;9.33;;;;;;;0.86;79.33;98929.03;4982722;28;20244;-67
2021/12/06 11:52:28;;;;;;;15.70;10.60;;;;;;;1.53;75.84;98930.34;4972950;28;20229;-68
2021/12/06 11:54:59;;;;;;;15.10;11.37;;;;;;;1.02;76.89;98932.03;4982317;28;20771;-68
2021/12/06 11:57:33;;;;;;;17.73;11.23;;;;;;;1.32;75.84;98925.94;4982742;28;20237;-67